createdAt,value
2019-02-20T15:43:19.752Z,2.30
2019-02-20T15:48:25.689Z,2.25
2019-02-20T15:53:31.619Z,3.22
2019-02-20T15:58:37.770Z,2.15
2019-02-20T16:03:43.782Z,2.15
2019-02-20T16:08:49.452Z,2.55
2019-02-20T16:13:55.713Z,2.30
2019-02-20T16:19:02.224Z,2.22
2019-02-20T16:24:08.780Z,2.62
2019-02-20T16:29:14.886Z,2.65
2019-02-20T16:34:20.861Z,2.10
2019-02-20T16:39:26.651Z,2.67
2019-02-20T16:44:32.720Z,2.20
2019-02-20T16:49:39.029Z,2.22
2019-02-20T16:54:45.460Z,2.37
2019-02-20T16:59:51.541Z,2.67
2019-02-20T17:04:59.364Z,2.35
2019-02-20T17:10:06.519Z,2.22
2019-02-20T17:15:14.089Z,2.30
2019-02-20T17:20:19.756Z,2.30
2019-02-20T17:25:25.611Z,2.08
2019-02-20T17:30:32.489Z,2.20
2019-02-20T17:35:38.560Z,2.95
2019-02-20T17:40:44.451Z,2.62
2019-02-20T17:45:51.220Z,2.58
2019-02-20T17:50:58.143Z,3.15
2019-02-20T17:56:15.361Z,3.10
2019-02-20T18:01:21.901Z,3.00
2019-02-20T18:06:28.521Z,2.95
2019-02-20T18:11:34.410Z,3.08
2019-02-20T18:16:40.570Z,3.15
2019-02-20T18:21:46.692Z,2.90
2019-02-20T18:26:52.489Z,2.83
2019-02-20T18:31:58.494Z,2.70
2019-02-20T18:37:04.780Z,3.45
2019-02-20T18:42:11.622Z,2.80
2019-02-20T18:47:18.392Z,3.00
2019-02-20T18:52:24.758Z,3.10
2019-02-20T18:57:31.228Z,5.47
2019-02-20T19:02:37.020Z,6.42
2019-02-20T19:07:43.492Z,5.53
2019-02-20T19:13:15.058Z,5.25
2019-02-20T19:18:51.133Z,6.50
2019-02-20T19:24:32.629Z,5.40
2019-02-20T19:30:09.849Z,5.45
2019-02-20T19:35:53.192Z,5.40
2019-02-20T19:41:32.832Z,6.05
2019-02-20T19:47:19.749Z,5.78
2019-02-20T19:52:51.375Z,4.90
2019-02-20T19:58:28.400Z,5.17
2019-02-20T20:04:12.206Z,5.10
2019-02-20T20:09:46.699Z,4.40
2019-02-20T20:15:06.912Z,4.50
2019-02-20T20:20:28.837Z,5.25
2019-02-20T20:25:57.753Z,4.67
2019-02-20T20:31:51.559Z,4.53
2019-02-20T20:37:14.457Z,4.58
2019-02-20T20:42:46.950Z,4.25
2019-02-20T20:48:40.117Z,4.00
2019-02-20T20:54:48.616Z,4.17
2019-02-20T21:00:16.816Z,4.15
2019-02-20T21:06:09.970Z,4.33
2019-02-20T21:11:50.380Z,4.35
2019-02-20T21:17:42.179Z,4.00
2019-02-20T21:23:15.580Z,4.85
2019-02-20T21:28:49.190Z,3.70
2019-02-20T21:34:38.380Z,3.98
2019-02-20T21:40:02.853Z,3.70
2019-02-20T21:45:36.311Z,3.72
2019-02-20T21:50:55.764Z,3.80
2019-02-20T21:56:15.969Z,4.12
2019-02-20T22:02:18.249Z,4.05
2019-02-20T22:08:04.469Z,4.28
2019-02-20T22:13:49.710Z,4.15
2019-02-20T22:19:26.990Z,3.92
2019-02-20T22:25:14.743Z,4.03
2019-02-20T22:30:57.779Z,3.70
2019-02-20T22:36:40.179Z,3.80
2019-02-20T22:42:30.120Z,3.83
2019-02-20T22:48:10.679Z,3.95
2019-02-20T22:53:52.155Z,4.12
2019-02-20T22:59:12.771Z,3.42
2019-02-20T23:05:03.570Z,3.75
2019-02-20T23:10:31.464Z,3.70
2019-02-20T23:15:39.100Z,3.60
2019-02-20T23:20:45.660Z,3.80
2019-02-20T23:25:52.190Z,3.70
2019-02-20T23:30:58.381Z,3.95
2019-02-20T23:36:04.739Z,3.75
2019-02-20T23:41:10.480Z,3.77
2019-02-20T23:46:17.100Z,3.83
2019-02-20T23:51:23.719Z,3.58
2019-02-20T23:56:30.341Z,3.60
